createdAt,value
2023-03-19T00:00:43.446Z,94278.78
2023-03-19T00:03:10.581Z,94295.03
2023-03-19T00:05:37.606Z,94297.16
2023-03-19T00:08:04.778Z,94280.78
2023-03-19T00:10:31.515Z,94288.97
2023-03-19T00:12:58.252Z,94298.50
2023-03-19T00:15:24.959Z,94293.00
2023-03-19T00:17:51.798Z,94289.91
2023-03-19T00:20:19.916Z,94290.56
2023-03-19T00:22:46.741Z,94299.41
2023-03-19T00:25:13.816Z,94307.63
2023-03-19T00:27:40.610Z,94279.78
2023-03-19T00:30:09.115Z,94285.53
2023-03-19T00:32:36.992Z,94299.16
2023-03-19T00:35:06.603Z,94306.19
2023-03-19T00:37:34.531Z,94306.63
2023-03-19T00:40:01.878Z,94299.53
2023-03-19T00:42:28.672Z,94305.03
2023-03-19T00:44:55.925Z,94319.06
2023-03-19T00:47:23.400Z,94309.22
2023-03-19T00:49:50.175Z,94305.84
2023-03-19T00:52:17.054Z,94311.69
2023-03-19T00:54:43.897Z,94314.47
2023-03-19T00:57:10.992Z,94331.53
2023-03-19T00:59:37.692Z,94311.38
2023-03-19T01:02:04.903Z,94325.13
2023-03-19T01:04:31.896Z,94330.03
2023-03-19T01:09:25.665Z,94313.03
2023-03-19T01:11:52.682Z,94310.03
2023-03-19T01:14:19.576Z,94327.47
2023-03-19T01:16:46.355Z,94310.47
2023-03-19T01:19:13.721Z,94328.47
2023-03-19T01:21:40.517Z,94330.13
2023-03-19T01:24:07.264Z,94322.97
2023-03-19T01:26:33.962Z,94318.75
2023-03-19T01:29:00.864Z,94315.47
2023-03-19T01:31:27.715Z,94316.28
2023-03-19T01:33:54.491Z,94326.28
2023-03-19T01:36:21.335Z,94341.72
2023-03-19T01:38:48.271Z,94338.28
2023-03-19T01:41:15.400Z,94340.09
2023-03-19T01:43:42.208Z,94334.97
2023-03-19T01:46:22.062Z,94353.00
2023-03-19T01:48:52.225Z,94349.59
2023-03-19T01:51:25.599Z,94341.91
2023-03-19T01:53:58.204Z,94357.28
2023-03-19T01:56:34.326Z,94359.75
2023-03-19T01:59:09.812Z,94366.63
2023-03-19T02:01:55.954Z,94383.31
2023-03-19T02:04:25.155Z,94376.91
2023-03-19T02:06:51.976Z,94357.41
2023-03-19T02:09:19.708Z,94369.88
2023-03-19T02:11:46.696Z,94374.28
2023-03-19T02:14:13.541Z,94367.75
2023-03-19T02:16:40.291Z,94365.97
2023-03-19T02:19:14.020Z,94367.28
2023-03-19T02:21:40.882Z,94360.06
2023-03-19T02:24:21.609Z,94378.13
2023-03-19T02:26:48.998Z,94373.53
2023-03-19T02:29:15.865Z,94366.50
2023-03-19T02:31:42.624Z,94364.00
2023-03-19T02:34:24.100Z,94381.66
2023-03-19T02:36:59.189Z,94370.38
2023-03-19T02:39:36.385Z,94384.69
2023-03-19T02:42:04.777Z,94378.78
2023-03-19T02:44:31.776Z,94372.38
2023-03-19T02:46:59.654Z,94391.53
2023-03-19T02:49:26.573Z,94382.22
2023-03-19T02:51:53.350Z,94390.94
2023-03-19T02:54:20.077Z,94387.66
2023-03-19T02:56:47.771Z,94395.84
2023-03-19T02:59:14.721Z,94395.03
2023-03-19T03:01:41.806Z,94398.91
2023-03-19T03:04:08.922Z,94385.59
2023-03-19T03:06:35.699Z,94390.69
2023-03-19T03:09:02.428Z,94381.66
2023-03-19T03:11:29.279Z,94390.53
2023-03-19T03:13:56.552Z,94388.88
2023-03-19T03:16:23.455Z,94392.16
2023-03-19T03:18:50.293Z,94391.59
2023-03-19T03:21:20.165Z,94397.88
2023-03-19T03:23:48.636Z,94399.47
2023-03-19T03:26:15.689Z,94388.56
2023-03-19T03:28:42.492Z,94398.50
2023-03-19T03:31:09.775Z,94412.00
2023-03-19T03:33:36.864Z,94401.94
2023-03-19T03:36:04.057Z,94421.63
2023-03-19T03:38:32.723Z,94411.78
2023-03-19T03:40:59.442Z,94428.81
2023-03-19T03:43:26.401Z,94412.13
2023-03-19T03:45:54.632Z,94415.69
2023-03-19T03:48:22.040Z,94406.41
2023-03-19T03:50:48.827Z,94417.06
2023-03-19T03:53:16.074Z,94428.91
2023-03-19T03:55:43.140Z,94425.03
2023-03-19T03:58:10.214Z,94426.00
2023-03-19T04:00:37.125Z,94433.22
2023-03-19T04:03:03.966Z,94426.13
2023-03-19T04:05:31.085Z,94429.03
2023-03-19T04:07:58.624Z,94428.41
2023-03-19T04:10:25.386Z,94435.59
2023-03-19T04:12:52.146Z,94432.63
2023-03-19T04:15:19.132Z,94414.41
2023-03-19T04:17:46.250Z,94429.69
2023-03-19T04:20:14.489Z,94419.69
2023-03-19T04:22:41.780Z,94423.47
2023-03-19T04:25:11.577Z,94453.97
2023-03-19T04:27:38.348Z,94460.53
2023-03-19T04:30:06.034Z,94437.84
2023-03-19T04:32:33.718Z,94440.56
2023-03-19T04:35:00.805Z,94431.47
2023-03-19T04:37:27.861Z,94450.69
2023-03-19T04:39:54.635Z,94447.84
2023-03-19T04:42:21.801Z,94427.38
2023-03-19T04:44:48.713Z,94434.50
2023-03-19T04:47:15.607Z,94452.59
2023-03-19T04:49:42.548Z,94452.72
2023-03-19T04:52:09.570Z,94461.16
2023-03-19T04:54:36.380Z,94454.97
2023-03-19T04:57:03.127Z,94464.44
2023-03-19T04:59:30.025Z,94455.91
2023-03-19T05:01:56.867Z,94471.28
2023-03-19T05:04:24.151Z,94476.22
2023-03-19T05:06:51.285Z,94474.56
2023-03-19T05:09:18.081Z,94480.75
2023-03-19T05:11:44.841Z,94479.09
2023-03-19T05:14:11.624Z,94486.56
2023-03-19T05:16:38.911Z,94485.03
2023-03-19T05:19:05.650Z,94482.38
2023-03-19T05:21:32.799Z,94484.22
2023-03-19T05:23:59.784Z,94482.59
2023-03-19T05:26:26.672Z,94490.31
2023-03-19T05:28:53.461Z,94481.91
2023-03-19T05:31:20.231Z,94492.59
2023-03-19T05:33:47.044Z,94473.03
2023-03-19T05:36:13.820Z,94491.63
2023-03-19T05:38:40.863Z,94490.00
2023-03-19T05:41:08.358Z,94469.28
2023-03-19T05:43:35.106Z,94492.28
2023-03-19T05:46:02.136Z,94468.63
2023-03-19T05:48:28.950Z,94486.38
2023-03-19T05:50:56.334Z,94477.19
2023-03-19T05:53:23.257Z,94487.22
2023-03-19T05:55:50.003Z,94493.28
2023-03-19T05:58:17.084Z,94490.28
2023-03-19T06:00:44.075Z,94465.34
2023-03-19T06:03:11.192Z,94487.13
2023-03-19T06:05:38.588Z,94496.19
2023-03-19T06:08:05.771Z,94495.22
2023-03-19T06:10:35.473Z,94489.63
2023-03-19T06:13:02.367Z,94505.06
2023-03-19T06:15:29.113Z,94510.41
2023-03-19T06:17:56.020Z,94524.22
2023-03-19T06:20:22.763Z,94503.75
2023-03-19T06:22:49.524Z,94499.72
2023-03-19T06:25:16.682Z,94509.59
2023-03-19T06:27:43.446Z,94522.88
2023-03-19T06:30:10.979Z,94503.38
2023-03-19T06:32:38.428Z,94518.69
2023-03-19T06:35:06.567Z,94522.09
2023-03-19T06:37:33.716Z,94514.88
2023-03-19T06:40:00.656Z,94518.97
2023-03-19T06:42:27.874Z,94517.69
2023-03-19T06:44:54.594Z,94527.72
2023-03-19T06:47:21.348Z,94517.06
2023-03-19T06:49:48.154Z,94513.63
2023-03-19T06:52:14.929Z,94502.81
2023-03-19T06:54:41.692Z,94520.53
2023-03-19T06:57:08.543Z,94506.50
2023-03-19T06:59:35.287Z,94527.50
2023-03-19T07:02:02.380Z,94514.69
2023-03-19T07:04:30.412Z,94510.88
2023-03-19T07:06:57.206Z,94500.94
2023-03-19T07:09:24.060Z,94492.44
2023-03-19T07:11:51.019Z,94517.09
2023-03-19T07:14:17.744Z,94514.09
2023-03-19T07:16:44.579Z,94522.38
2023-03-19T07:19:11.717Z,94525.47
2023-03-19T07:21:38.436Z,94512.22
2023-03-19T07:24:05.485Z,94518.78
2023-03-19T07:26:32.649Z,94528.66
2023-03-19T07:28:59.465Z,94530.50
2023-03-19T07:31:27.496Z,94531.53
2023-03-19T07:33:54.263Z,94525.81
2023-03-19T07:36:21.970Z,94541.59
2023-03-19T07:38:48.678Z,94523.91
2023-03-19T07:41:15.443Z,94529.50
2023-03-19T07:43:46.826Z,94531.84
2023-03-19T07:46:14.040Z,94533.19
2023-03-19T07:48:42.334Z,94534.88
2023-03-19T07:51:09.195Z,94517.47
2023-03-19T07:53:37.466Z,94530.97
2023-03-19T07:56:04.559Z,94517.69
2023-03-19T07:58:31.356Z,94537.19
2023-03-19T08:00:58.112Z,94524.03
2023-03-19T08:03:24.990Z,94529.56
2023-03-19T08:05:52.618Z,94531.00
2023-03-19T08:08:19.606Z,94523.94
2023-03-19T08:10:48.239Z,94521.91
2023-03-19T08:13:15.019Z,94515.31
2023-03-19T08:15:41.898Z,94529.34
2023-03-19T08:18:09.139Z,94530.66
2023-03-19T08:20:36.292Z,94532.94
2023-03-19T08:23:03.357Z,94528.28
2023-03-19T08:25:32.631Z,94530.81
2023-03-19T08:28:02.085Z,94527.25
2023-03-19T08:30:29.106Z,94513.88
2023-03-19T08:32:55.902Z,94520.16
2023-03-19T08:35:23.315Z,94521.22
2023-03-19T08:37:50.109Z,94521.75
2023-03-19T08:40:17.068Z,94516.16
2023-03-19T08:42:45.214Z,94517.50
2023-03-19T08:45:14.699Z,94518.19
2023-03-19T08:47:42.482Z,94523.16
2023-03-19T08:50:10.694Z,94531.59
2023-03-19T08:52:37.605Z,94509.78
2023-03-19T08:55:05.627Z,94522.16
2023-03-19T08:57:32.501Z,94524.38
2023-03-19T08:59:59.265Z,94516.09
2023-03-19T09:02:26.073Z,94525.28
2023-03-19T09:04:53.022Z,94520.63
2023-03-19T09:07:19.924Z,94535.50
2023-03-19T09:09:46.682Z,94536.22
2023-03-19T09:12:16.869Z,94541.78
2023-03-19T09:14:44.035Z,94531.97
2023-03-19T09:17:11.673Z,94535.81
2023-03-19T09:19:38.508Z,94501.56
2023-03-19T09:22:06.202Z,94521.44
2023-03-19T09:24:32.957Z,94540.16
2023-03-19T09:26:59.735Z,94537.97
2023-03-19T09:29:26.543Z,94555.16
2023-03-19T09:31:53.317Z,94544.78
2023-03-19T09:34:20.077Z,94543.41
2023-03-19T09:36:46.863Z,94535.88
2023-03-19T09:39:13.641Z,94535.47
2023-03-19T09:42:34.070Z,94539.38
2023-03-19T09:45:00.800Z,94536.13
2023-03-19T09:47:33.407Z,94534.69
2023-03-19T09:50:32.409Z,94520.75
2023-03-19T09:53:20.342Z,94539.50
2023-03-19T09:55:51.771Z,94522.31
2023-03-19T09:58:37.041Z,94526.53
2023-03-19T10:01:04.311Z,94523.78
2023-03-19T10:03:58.425Z,94527.03
2023-03-19T10:06:35.730Z,94520.31
2023-03-19T10:09:33.839Z,94502.00
2023-03-19T10:12:25.152Z,94507.91
2023-03-19T10:17:33.193Z,94512.47
2023-03-19T10:20:16.932Z,94481.75
2023-03-19T10:22:51.840Z,94498.22
2023-03-19T10:25:27.690Z,94493.78
2023-03-19T10:28:10.654Z,94495.06
2023-03-19T10:30:37.883Z,94498.28
2023-03-19T10:33:24.127Z,94494.31
2023-03-19T10:36:04.873Z,94479.56
2023-03-19T10:38:33.755Z,94485.47
2023-03-19T10:41:38.607Z,94490.47
2023-03-19T10:44:12.681Z,94480.41
2023-03-19T10:46:40.598Z,94483.75
2023-03-19T10:49:15.240Z,94462.75
2023-03-19T10:51:46.572Z,94458.94
2023-03-19T10:54:22.753Z,94460.72
2023-03-19T10:56:50.908Z,94472.63
2023-03-19T10:59:32.192Z,94485.06
2023-03-19T11:02:19.439Z,94475.47
2023-03-19T11:04:46.958Z,94495.94
2023-03-19T11:07:19.871Z,94492.59
2023-03-19T11:09:51.700Z,94482.84
2023-03-19T11:12:27.698Z,94482.47
2023-03-19T11:14:57.630Z,94466.44
2023-03-19T11:17:36.264Z,94482.34
2023-03-19T11:20:22.637Z,94478.03
2023-03-19T11:22:52.605Z,94476.06
2023-03-19T11:25:52.032Z,94471.25
2023-03-19T11:28:26.263Z,94469.66
2023-03-19T11:31:19.916Z,94478.63
2023-03-19T11:33:55.370Z,94480.88
2023-03-19T11:36:31.854Z,94468.22
2023-03-19T11:39:40.116Z,94470.88
2023-03-19T11:42:21.890Z,94478.63
2023-03-19T11:45:42.227Z,94475.84
2023-03-19T11:48:15.670Z,94464.63
2023-03-19T11:50:59.035Z,94451.19
2023-03-19T11:53:38.372Z,94442.19
2023-03-19T11:56:44.164Z,94460.56
2023-03-19T11:59:35.679Z,94432.63
2023-03-19T12:02:57.343Z,94447.28
2023-03-19T12:05:35.832Z,94448.72
2023-03-19T12:08:19.838Z,94441.19
2023-03-19T12:11:12.881Z,94444.84
2023-03-19T12:14:45.873Z,94441.22
2023-03-19T12:17:44.031Z,94446.69
2023-03-19T12:20:35.198Z,94439.34
2023-03-19T12:23:35.984Z,94446.50
2023-03-19T12:26:10.378Z,94426.91
2023-03-19T12:29:19.177Z,94430.19
2023-03-19T12:32:18.184Z,94429.56
2023-03-19T12:34:45.266Z,94436.28
2023-03-19T12:37:18.053Z,94428.72
2023-03-19T12:40:20.374Z,94414.88
2023-03-19T12:42:47.224Z,94405.94
2023-03-19T12:45:37.278Z,94423.63
2023-03-19T12:49:01.106Z,94420.38
2023-03-19T12:51:36.032Z,94418.75
2023-03-19T12:54:19.215Z,94414.28
2023-03-19T12:57:29.366Z,94415.50
2023-03-19T13:00:22.876Z,94418.94
2023-03-19T13:03:10.937Z,94413.66
2023-03-19T13:05:50.077Z,94396.13
2023-03-19T13:08:56.812Z,94407.69
2023-03-19T13:11:53.881Z,94407.88
2023-03-19T13:14:43.384Z,94403.56
2023-03-19T13:17:28.876Z,94395.09
2023-03-19T13:19:57.058Z,94391.69
2023-03-19T13:22:31.993Z,94396.41
2023-03-19T13:25:00.639Z,94398.75
2023-03-19T13:27:32.917Z,94402.72
2023-03-19T13:30:11.387Z,94398.16
2023-03-19T13:33:06.304Z,94382.84
2023-03-19T13:35:44.358Z,94401.47
2023-03-19T13:38:14.248Z,94404.72
2023-03-19T13:40:54.496Z,94409.22
2023-03-19T13:43:30.434Z,94402.44
2023-03-19T13:46:37.736Z,94386.13
2023-03-19T13:49:33.718Z,94393.47
2023-03-19T13:52:25.828Z,94406.56
2023-03-19T13:54:57.837Z,94394.75
2023-03-19T13:57:36.107Z,94397.69
2023-03-19T14:00:43.376Z,94406.25
2023-03-19T14:03:29.096Z,94388.50
2023-03-19T14:05:57.985Z,94385.38
2023-03-19T14:08:33.590Z,94394.19
2023-03-19T14:11:02.985Z,94387.22
2023-03-19T14:13:38.454Z,94396.59
2023-03-19T14:16:18.028Z,94388.94
2023-03-19T14:18:45.186Z,94390.94
2023-03-19T14:21:21.349Z,94377.31
2023-03-19T14:23:56.021Z,94379.59
2023-03-19T14:26:29.497Z,94389.38
2023-03-19T14:29:03.701Z,94396.09
2023-03-19T14:31:33.789Z,94397.06
2023-03-19T14:34:11.657Z,94385.78
2023-03-19T14:36:44.929Z,94385.09
2023-03-19T14:39:31.585Z,94386.44
2023-03-19T14:42:41.334Z,94380.97
2023-03-19T14:49:43.329Z,94386.09
2023-03-19T14:52:21.443Z,94391.00
2023-03-19T14:55:02.043Z,94384.06
2023-03-19T14:57:34.917Z,94409.09
2023-03-19T15:00:07.129Z,94423.50
2023-03-19T15:02:46.948Z,94417.13
2023-03-19T15:05:33.328Z,94418.72
2023-03-19T15:08:07.086Z,94424.34
2023-03-19T15:10:50.710Z,94423.81
2023-03-19T15:14:01.145Z,94429.34
2023-03-19T15:17:38.760Z,94432.53
2023-03-19T15:20:21.983Z,94418.56
2023-03-19T15:23:13.414Z,94428.84
2023-03-19T15:25:52.698Z,94431.28
2023-03-19T15:28:20.081Z,94430.34
2023-03-19T15:31:03.399Z,94439.84
2023-03-19T15:33:42.718Z,94434.31
2023-03-19T15:36:17.307Z,94438.22
2023-03-19T15:38:49.511Z,94429.56
2023-03-19T15:41:18.070Z,94428.34
2023-03-19T15:43:45.853Z,94438.34
2023-03-19T15:46:16.574Z,94440.13
2023-03-19T15:48:54.324Z,94430.69
2023-03-19T15:51:23.565Z,94427.91
2023-03-19T15:53:50.807Z,94431.50
2023-03-19T15:56:20.545Z,94435.22
2023-03-19T15:58:53.073Z,94412.91
2023-03-19T16:01:21.563Z,94436.84
2023-03-19T16:04:09.018Z,94439.50
2023-03-19T16:06:39.835Z,94446.09
2023-03-19T16:09:32.985Z,94441.06
2023-03-19T16:12:01.385Z,94440.53
2023-03-19T16:14:42.340Z,94455.72
2023-03-19T16:17:17.889Z,94456.34
2023-03-19T16:19:50.511Z,94452.06
2023-03-19T16:22:23.547Z,94448.38
2023-03-19T16:24:51.553Z,94460.81
2023-03-19T16:27:22.290Z,94435.16
2023-03-19T16:29:57.799Z,94465.28
2023-03-19T16:32:27.769Z,94464.66
2023-03-19T16:35:03.983Z,94470.28
2023-03-19T16:37:48.913Z,94463.81
2023-03-19T16:40:38.788Z,94475.75
2023-03-19T16:43:18.741Z,94479.34
2023-03-19T16:45:51.453Z,94486.69
2023-03-19T16:48:18.842Z,94490.75
2023-03-19T16:50:47.469Z,94490.75
2023-03-19T16:53:27.460Z,94498.97
2023-03-19T16:55:57.014Z,94498.31
2023-03-19T16:58:29.591Z,94490.88
2023-03-19T17:00:56.530Z,94487.53
2023-03-19T17:03:23.798Z,94498.31
2023-03-19T17:05:50.587Z,94494.50
2023-03-19T17:09:26.594Z,94507.06
2023-03-19T17:11:53.965Z,94475.84
2023-03-19T17:14:22.054Z,94511.94
2023-03-19T17:16:50.906Z,94507.13
2023-03-19T17:19:23.941Z,94521.84
2023-03-19T17:21:53.621Z,94512.25
2023-03-19T17:24:34.502Z,94527.50
2023-03-19T17:27:04.108Z,94503.25
2023-03-19T17:29:31.836Z,94508.19
2023-03-19T17:32:02.028Z,94538.53
2023-03-19T17:34:31.963Z,94536.63
2023-03-19T17:37:01.591Z,94552.44
2023-03-19T17:39:32.917Z,94526.69
2023-03-19T17:42:00.048Z,94538.34
2023-03-19T17:44:28.053Z,94539.25
2023-03-19T17:46:56.166Z,94557.94
2023-03-19T17:49:29.005Z,94571.72
2023-03-19T17:51:56.823Z,94578.34
2023-03-19T17:54:25.896Z,94583.38
2023-03-19T17:56:53.827Z,94590.06
2023-03-19T17:59:21.039Z,94571.09
2023-03-19T18:01:47.857Z,94554.94
2023-03-19T18:04:18.669Z,94589.56
2023-03-19T18:06:57.425Z,94597.47
2023-03-19T18:09:28.609Z,94603.75
2023-03-19T18:11:55.828Z,94598.63
2023-03-19T18:14:22.581Z,94582.63
2023-03-19T18:16:49.456Z,94592.66
2023-03-19T18:19:23.051Z,94586.53
2023-03-19T18:21:49.863Z,94595.72
2023-03-19T18:24:16.736Z,94602.50
2023-03-19T18:26:43.502Z,94596.94
2023-03-19T18:29:10.448Z,94602.03
2023-03-19T18:31:37.308Z,94607.59
2023-03-19T18:34:08.753Z,94593.50
2023-03-19T18:36:36.106Z,94599.91
2023-03-19T18:39:03.621Z,94621.75
2023-03-19T18:41:30.529Z,94610.25
2023-03-19T18:43:57.328Z,94611.94
2023-03-19T18:46:29.274Z,94611.56
2023-03-19T18:49:01.217Z,94596.31
2023-03-19T18:51:28.773Z,94611.09
2023-03-19T18:53:56.817Z,94606.72
2023-03-19T18:56:33.128Z,94631.16
2023-03-19T18:59:00.980Z,94625.13
2023-03-19T19:01:28.408Z,94614.59
2023-03-19T19:03:55.694Z,94628.41
2023-03-19T19:06:44.275Z,94634.31
2023-03-19T19:09:13.129Z,94627.78
2023-03-19T19:11:42.052Z,94638.94
2023-03-19T19:14:18.995Z,94630.88
2023-03-19T19:16:45.938Z,94626.63
2023-03-19T19:19:23.252Z,94640.91
2023-03-19T19:21:53.183Z,94640.91
2023-03-19T19:24:21.284Z,94623.69
2023-03-19T19:26:53.443Z,94639.94
2023-03-19T19:29:29.569Z,94616.28
2023-03-19T19:31:56.658Z,94626.31
2023-03-19T19:34:23.750Z,94620.91
2023-03-19T19:36:51.334Z,94628.47
2023-03-19T19:39:18.504Z,94642.91
2023-03-19T19:41:46.761Z,94643.06
2023-03-19T19:44:21.050Z,94655.69
2023-03-19T19:46:48.047Z,94632.06
2023-03-19T19:49:15.553Z,94659.47
2023-03-19T19:51:42.791Z,94638.31
2023-03-19T19:54:09.575Z,94655.72
2023-03-19T19:56:37.476Z,94674.41
2023-03-19T19:59:06.934Z,94667.19
2023-03-19T20:01:35.381Z,94658.97
2023-03-19T20:04:04.159Z,94674.41
2023-03-19T20:06:31.052Z,94674.75
2023-03-19T20:08:57.820Z,94679.94
2023-03-19T20:11:26.151Z,94691.47
2023-03-19T20:13:55.896Z,94690.81
2023-03-19T20:16:26.636Z,94683.22
2023-03-19T20:18:54.895Z,94698.84
2023-03-19T20:21:23.165Z,94689.78
2023-03-19T20:23:53.173Z,94675.84
2023-03-19T20:26:23.341Z,94697.66
2023-03-19T20:28:51.212Z,94706.19
2023-03-19T20:31:33.093Z,94703.88
2023-03-19T20:33:59.958Z,94689.34
2023-03-19T20:36:26.877Z,94694.94
2023-03-19T20:38:54.148Z,94696.56
2023-03-19T20:41:24.786Z,94692.94
2023-03-19T20:43:52.183Z,94708.69
2023-03-19T20:46:21.301Z,94721.94
2023-03-19T20:48:49.236Z,94722.06
2023-03-19T20:51:25.334Z,94733.38
2023-03-19T20:53:52.975Z,94713.09
2023-03-19T20:56:22.565Z,94711.28
2023-03-19T20:58:49.659Z,94712.00
2023-03-19T21:01:18.021Z,94723.22
2023-03-19T21:03:44.809Z,94723.22
2023-03-19T21:06:24.175Z,94726.81
2023-03-19T21:09:02.070Z,94723.22
2023-03-19T21:11:42.154Z,94730.25
2023-03-19T21:14:18.486Z,94740.06
2023-03-19T21:16:45.246Z,94734.09
2023-03-19T21:19:12.743Z,94733.88
2023-03-19T21:21:39.731Z,94737.59
2023-03-19T21:24:20.953Z,94748.25
2023-03-19T21:26:47.812Z,94719.75
2023-03-19T21:29:24.284Z,94740.19
2023-03-19T21:31:56.749Z,94726.22
2023-03-19T21:34:23.585Z,94725.41
2023-03-19T21:36:50.956Z,94737.34
2023-03-19T21:39:17.975Z,94720.84
2023-03-19T21:41:46.553Z,94728.06
2023-03-19T21:44:18.543Z,94726.09
2023-03-19T21:46:47.924Z,94720.09
2023-03-19T21:49:15.394Z,94725.66
2023-03-19T21:51:44.701Z,94740.00
2023-03-19T21:54:11.555Z,94732.03
2023-03-19T21:56:44.140Z,94741.09
2023-03-19T21:59:23.087Z,94732.69
2023-03-19T22:01:49.910Z,94733.31
2023-03-19T22:04:19.197Z,94732.47
2023-03-19T22:06:46.904Z,94742.06
2023-03-19T22:09:13.686Z,94738.56
2023-03-19T22:11:42.637Z,94745.19
2023-03-19T22:14:38.617Z,94744.09
2023-03-19T22:17:05.986Z,94739.41
2023-03-19T22:19:32.864Z,94739.97
2023-03-19T22:21:59.673Z,94742.19
2023-03-19T22:24:26.458Z,94736.44
2023-03-19T22:26:57.879Z,94727.94
2023-03-19T22:29:25.729Z,94752.69
2023-03-19T22:31:54.563Z,94752.13
2023-03-19T22:34:25.676Z,94734.97
2023-03-19T22:36:52.765Z,94746.88
2023-03-19T22:39:19.536Z,94737.41
2023-03-19T22:41:48.431Z,94757.53
2023-03-19T22:44:37.805Z,94752.97
2023-03-19T22:47:04.810Z,94750.38
2023-03-19T22:49:31.801Z,94747.44
2023-03-19T22:51:58.947Z,94727.63
2023-03-19T22:54:26.355Z,94754.69
2023-03-19T22:56:53.139Z,94721.28
2023-03-19T22:59:20.494Z,94751.53
2023-03-19T23:01:48.385Z,94737.38
2023-03-19T23:04:24.917Z,94751.81
2023-03-19T23:06:54.187Z,94755.53
2023-03-19T23:09:27.333Z,94767.22
2023-03-19T23:11:54.295Z,94756.75
2023-03-19T23:14:29.528Z,94737.13
2023-03-19T23:17:02.106Z,94764.75
2023-03-19T23:19:38.532Z,94775.47
2023-03-19T23:22:07.640Z,94758.13
2023-03-19T23:24:34.837Z,94764.69
2023-03-19T23:27:02.850Z,94777.47
2023-03-19T23:29:41.052Z,94760.41
2023-03-19T23:32:11.524Z,94775.09
2023-03-19T23:34:55.688Z,94772.13
2023-03-19T23:37:24.732Z,94778.06
2023-03-19T23:39:51.925Z,94777.38
2023-03-19T23:42:28.179Z,94763.78
2023-03-19T23:44:58.573Z,94769.41
2023-03-19T23:47:25.530Z,94778.47
2023-03-19T23:49:52.364Z,94764.72
2023-03-19T23:52:19.116Z,94775.19
2023-03-19T23:54:46.748Z,94773.69
2023-03-19T23:57:16.030Z,94785.91
2023-03-19T23:59:45.505Z,94773.94
